📊 Raw Sensor Data
Showing records 49026 to 49050 of 85,112 total
| ID | Distance (ft) | Battery V | Battery A | Int Temp (°F) | Int Humid (%) | Ext Temp (°F) | Solar V | RSSI | SNR | Time Stamp |
|---|---|---|---|---|---|---|---|---|---|---|
| 36099 | -- | 4.03 | 0 | 75 | 39 | 67 | 5.10 | -83 | 8 | 03/26/2025 03:00 PM |
| 36098 | -- | 4.03 | 0 | 75 | 39 | 68 | 5.10 | -82 | 8 | 03/26/2025 02:46 PM |
| 36097 | -- | 4.08 | 0 | 76 | 38 | 68 | 5.10 | -81 | 8 | 03/26/2025 02:30 PM |
| 36096 | -- | 4.03 | 0 | 75 | 38 | 68 | 5.10 | -80 | 8 | 03/26/2025 02:15 PM |
| 36095 | -- | 4.03 | 0 | 73 | 39 | 66 | 5.10 | -84 | 8 | 03/26/2025 02:00 PM |
| 36094 | -- | 4.04 | 0 | 73 | 39 | 68 | 5.10 | -80 | 9 | 03/26/2025 01:45 PM |
| 36093 | -- | 4.03 | 0 | 73 | 38 | 67 | 5.10 | -82 | 8 | 03/26/2025 01:30 PM |
| 36092 | -- | 4.03 | 0 | 73 | 38 | 67 | 5.10 | -83 | 8 | 03/26/2025 01:15 PM |
| 36091 | -- | 4.09 | 0 | 71 | 38 | 67 | 5.10 | -83 | 8 | 03/26/2025 01:00 PM |
| 36090 | -- | 4.03 | 0 | 71 | 38 | 65 | 5.10 | -84 | 8 | 03/26/2025 12:45 PM |
| 36089 | -- | 4.03 | 0 | 70 | 38 | 65 | 5.10 | -83 | 8 | 03/26/2025 12:30 PM |
| 36088 | -- | 4.03 | 0 | 68 | 39 | 65 | 5.10 | -83 | 8 | 03/26/2025 12:15 PM |
| 36087 | -- | 4.03 | 0 | 68 | 39 | 66 | 5.10 | -82 | 9 | 03/26/2025 12:00 PM |
| 36086 | -- | 4.03 | 5 | 68 | 39 | 66 | 5.10 | -85 | 8 | 03/26/2025 11:45 AM |
| 36085 | -- | 4.03 | 5 | 68 | 39 | 65 | 5.10 | -84 | 8 | 03/26/2025 11:30 AM |
| 36084 | -- | 4.05 | 5 | 68 | 38 | 65 | 5.10 | -82 | 8 | 03/26/2025 11:15 AM |
| 36083 | -- | 4.03 | 5 | 67 | 38 | 66 | 5.10 | -80 | 8 | 03/26/2025 11:00 AM |
| 36082 | -- | 4.14 | 0 | 66 | 38 | 67 | 5.10 | -79 | 9 | 03/26/2025 10:45 AM |
| 36081 | -- | 4.03 | 5 | 65 | 38 | 64 | 5.10 | -81 | 8 | 03/26/2025 10:30 AM |
| 36080 | -- | 4.03 | 5 | 63 | 39 | 64 | 5.10 | -80 | 9 | 03/26/2025 10:15 AM |
| 36079 | -- | 4.03 | 5 | 63 | 38 | 65 | 5.10 | -79 | 8 | 03/26/2025 10:00 AM |
| 36078 | -- | 4.03 | 5 | 61 | 39 | 64 | 5.10 | -82 | 9 | 03/26/2025 09:45 AM |
| 36077 | -- | 4.06 | 5 | 60 | 39 | 62 | 5.10 | -81 | 8 | 03/26/2025 09:30 AM |
| 36076 | -- | 4.14 | 5 | 58 | 39 | 60 | 5.10 | -82 | 9 | 03/26/2025 09:15 AM |
| 36075 | -- | 4.03 | 0 | 58 | 39 | 59 | 5.10 | -80 | 7 | 03/26/2025 09:00 AM |